Time;durP1;ratioP1;P1;durP2;ratioP2;P2;SDS_P1;SDS_P2;PMS_P1;PMS_P2;Temp;Humidity;BMP_temperature;BMP_pressure;BME280_temperature;BME280_humidity;BME280_pressure;Samples;Min_cycle;Max_cycle;Signal;HPM_P1;HPM_P2
2022/08/29 00:01:20;;;;;;;40.10;15.13;;;;;;;21.62;86.91;99821.75;1770728;79;21204;-82
2022/08/29 00:04:24;;;;;;;38.88;15.35;;;;;;;21.60;86.95;99828.14;1757106;81;21549;-82
2022/08/29 00:07:31;;;;;;;38.23;15.00;;;;;;;21.52;87.45;99827.75;1757816;81;21237;-82
2022/08/29 00:10:38;;;;;;;31.12;15.70;;;;;;;21.42;88.09;99832.64;1757650;81;21229;-82
2022/08/29 00:13:43;;;;;;;33.58;15.58;;;;;;;21.43;88.20;99830.14;1757607;81;21780;-82
2022/08/29 00:16:50;;;;;;;49.15;16.95;;;;;;;21.42;88.61;99835.42;1759116;79;21274;-82
2022/08/29 00:19:56;;;;;;;39.83;15.68;;;;;;;21.36;89.12;99835.05;1756906;81;21233;-82
2022/08/29 00:23:02;;;;;;;41.65;18.23;;;;;;;22.18;86.16;99830.72;1756263;81;21189;-82
2022/08/29 00:26:08;;;;;;;40.08;14.30;;;;;;;22.26;84.83;99833.59;1756350;81;21799;-81
2022/08/29 00:29:13;;;;;;;32.55;14.68;;;;;;;22.07;85.35;99840.06;1757689;81;21174;-82
2022/08/29 00:32:19;;;;;;;35.88;15.85;;;;;;;21.94;86.10;99840.47;1776505;79;21224;-82
2022/08/29 00:35:28;;;;;;;39.45;16.20;;;;;;;22.05;85.80;99845.59;1807829;79;21212;-82
2022/08/29 00:38:35;;;;;;;30.60;15.30;;;;;;;21.93;85.68;99847.98;1808779;79;21183;-82
2022/08/29 00:41:40;;;;;;;34.98;15.13;;;;;;;22.03;85.69;99850.59;1808710;79;21731;-82
2022/08/29 00:44:46;;;;;;;38.75;14.90;;;;;;;21.89;86.11;99849.61;1808571;79;21172;-82
2022/08/29 00:47:58;;;;;;;41.55;15.75;;;;;;;21.84;86.83;99844.55;1785227;79;21224;-82
2022/08/29 00:51:10;;;;;;;32.50;15.80;;;;;;;21.92;86.58;99845.45;1775639;80;21193;-82
2022/08/29 00:54:16;;;;;;;33.38;14.30;;;;;;;21.52;87.82;99847.23;1775236;80;21244;-82
2022/08/29 00:57:17;;;;;;;33.85;14.38;;;;;;;21.49;87.97;99849.97;1777838;80;21272;-82
2022/08/29 01:00:13;;;;;;;43.63;15.38;;;;;;;21.59;86.40;99849.25;1777087;80;21192;-82
2022/08/29 01:03:18;;;;;;;41.63;16.17;;;;;;;21.48;85.94;99851.63;1777423;79;21189;-82
2022/08/29 01:06:23;;;;;;;36.40;15.23;;;;;;;21.63;84.85;99848.47;1773841;80;21200;-82
2022/08/29 01:09:30;;;;;;;34.45;13.83;;;;;;;21.50;85.04;99847.50;1775362;80;21201;-82
2022/08/29 01:12:37;;;;;;;28.27;13.45;;;;;;;21.55;84.53;99842.52;1775328;80;21196;-82
2022/08/29 01:15:46;;;;;;;28.70;12.58;;;;;;;21.42;84.49;99847.95;1775151;80;21216;-83
2022/08/29 01:18:53;;;;;;;30.92;12.73;;;;;;;21.31;84.22;99848.89;1777291;80;21220;-83
2022/08/29 01:22:15;;;;;;;30.75;13.20;;;;;;;21.59;82.41;99847.30;1777069;80;21157;-82
2022/08/29 01:25:28;;;;;;;31.05;13.62;;;;;;;21.47;82.72;99845.78;1775440;80;21197;-82
2022/08/29 01:28:36;;;;;;;27.77;13.22;;;;;;;21.29;81.96;99838.00;1777114;80;21106;-82
2022/08/29 01:31:50;;;;;;;24.70;13.28;;;;;;;21.43;81.40;99834.31;1781283;79;21189;-83
2022/08/29 01:34:56;;;;;;;31.62;13.00;;;;;;;21.07;82.38;99831.02;1794794;79;21213;-83
2022/08/29 01:38:01;;;;;;;30.10;12.20;;;;;;;21.19;81.99;99826.75;1795280;80;21228;-82
2022/08/29 01:41:06;;;;;;;22.77;10.93;;;;;;;20.85;82.92;99832.39;1793542;80;21280;-82
2022/08/29 01:44:07;;;;;;;19.05;10.50;;;;;;;20.71;83.73;99833.02;1795651;80;21279;-83
2022/08/29 01:47:13;;;;;;;14.13;9.40;;;;;;;20.66;82.80;99840.17;1795868;79;21239;-82
2022/08/29 01:50:21;;;;;;;10.20;8.10;;;;;;;20.95;80.62;99844.21;1805590;79;21200;-83
2022/08/29 01:53:26;;;;;;;18.45;10.68;;;;;;;20.66;80.80;99840.72;1782337;79;21189;-83
2022/08/29 01:56:35;;;;;;;19.48;10.35;;;;;;;20.55;81.39;99845.25;1805390;79;21197;-82
2022/08/29 01:59:42;;;;;;;18.02;10.48;;;;;;;20.55;82.02;99842.47;1806085;79;21114;-82
2022/08/29 02:02:47;;;;;;;16.32;9.75;;;;;;;20.42;82.72;99835.31;1776695;79;21177;-82
2022/08/29 02:05:58;;;;;;;21.15;12.50;;;;;;;20.47;82.89;99842.92;1760022;81;21205;-83
2022/08/29 02:09:02;;;;;;;24.72;12.58;;;;;;;20.41;83.45;99842.48;1760171;81;21197;-83
2022/08/29 02:12:09;;;;;;;26.27;13.72;;;;;;;20.57;83.35;99842.24;1760357;81;21241;-83
2022/08/29 02:15:17;;;;;;;39.20;15.83;;;;;;;20.62;83.28;99843.16;1760345;81;21240;-82
2022/08/29 02:18:22;;;;;;;32.35;16.05;;;;;;;20.58;83.88;99845.30;1760789;79;21745;-82
2022/08/29 02:21:30;;;;;;;33.15;16.50;;;;;;;20.65;83.81;99848.22;1757082;81;21359;-82
2022/08/29 02:24:36;;;;;;;27.82;15.28;;;;;;;20.50;84.90;99846.56;1757491;81;22050;-82
2022/08/29 02:27:42;;;;;;;32.98;16.25;;;;;;;20.71;83.98;99851.91;1756383;81;21237;-82
2022/08/29 02:30:49;;;;;;;24.65;15.40;;;;;;;20.72;83.86;99861.92;1757556;81;21210;-82
2022/08/29 02:33:55;;;;;;;36.98;15.23;;;;;;;20.71;83.82;99856.63;1768801;81;21504;-82
2022/08/29 02:37:02;;;;;;;30.85;16.87;;;;;;;20.91;83.29;99866.66;1768386;81;21339;-83
2022/08/29 02:40:08;;;;;;;34.48;16.12;;;;;;;20.88;83.71;99865.77;1769016;81;21184;-82
2022/08/29 02:43:15;;;;;;;27.60;16.65;;;;;;;20.99;83.28;99864.84;1767476;81;21189;-82
2022/08/29 02:46:25;;;;;;;36.33;16.20;;;;;;;20.71;84.42;99868.59;1769500;79;22136;-82
2022/08/29 02:49:33;;;;;;;35.13;15.63;;;;;;;20.71;84.28;99873.31;1768872;81;21169;-82
2022/08/29 02:52:39;;;;;;;32.55;15.32;;;;;;;20.64;84.69;99874.84;1768043;81;21188;-83
2022/08/29 02:55:46;;;;;;;34.38;15.53;;;;;;;20.93;83.51;99883.36;1768867;81;21188;-83
2022/08/29 02:58:53;;;;;;;39.23;15.60;;;;;;;20.84;83.58;99885.44;1768627;81;21767;-81
2022/08/29 03:01:59;;;;;;;23.62;14.00;;;;;;;20.95;82.99;99891.47;1777407;79;21169;-82
2022/08/29 03:05:05;;;;;;;28.85;16.00;;;;;;;20.88;82.71;99888.02;1800365;79;21181;-82
2022/08/29 03:08:17;;;;;;;26.55;15.93;;;;;;;20.55;83.70;99889.70;1799043;79;21220;-82
2022/08/29 03:11:23;;;;;;;34.00;17.05;;;;;;;20.73;84.20;99895.56;1800410;79;21193;-82
2022/08/29 03:14:28;;;;;;;36.85;17.07;;;;;;;20.73;83.92;99901.67;1800049;79;21196;-82
2022/08/29 03:17:33;;;;;;;34.95;15.08;;;;;;;20.67;85.56;99898.81;1779952;79;21213;-82
2022/08/29 03:20:40;;;;;;;27.15;13.90;;;;;;;20.54;86.62;99900.52;1768806;81;21811;-82
2022/08/29 03:23:46;;;;;;;22.15;13.35;;;;;;;20.67;84.12;99907.70;1769026;81;21577;-82
2022/08/29 03:26:54;;;;;;;21.02;11.48;;;;;;;20.68;82.98;99907.44;1768957;81;21194;-82
2022/08/29 03:30:00;;;;;;;21.33;12.90;;;;;;;20.74;82.47;99904.73;1768494;81;21189;-82
2022/08/29 03:33:07;;;;;;;22.15;12.47;;;;;;;20.74;82.07;99907.52;1768651;79;21172;-82
2022/08/29 03:36:13;;;;;;;27.22;14.33;;;;;;;20.89;81.46;99909.17;1768676;80;21188;-82
2022/08/29 03:39:20;;;;;;;34.35;15.05;;;;;;;21.01;81.59;99916.86;1768722;81;21228;-81
2022/08/29 03:42:25;;;;;;;23.98;15.25;;;;;;;21.08;81.72;99911.97;1768918;81;21180;-82
2022/08/29 03:45:31;;;;;;;31.77;15.00;;;;;;;21.24;81.61;99914.97;1769630;81;21141;-82
2022/08/29 03:48:36;;;;;;;30.57;14.45;;;;;;;21.32;81.78;99915.41;1769846;79;21154;-82
2022/08/29 03:51:43;;;;;;;30.80;13.48;;;;;;;21.48;81.24;99906.72;1769845;81;21217;-82
2022/08/29 03:54:49;;;;;;;33.70;14.95;;;;;;;21.73;81.40;99918.72;1767315;81;21229;-82
2022/08/29 03:57:57;;;;;;;32.78;13.80;;;;;;;21.86;81.26;99916.10;1768146;81;21213;-82
2022/08/29 04:01:02;;;;;;;29.60;13.88;;;;;;;21.97;81.12;99920.67;1768446;81;21225;-82
2022/08/29 04:05:05;;;;;;;37.10;13.62;;;;;;;22.01;81.07;99919.06;1767256;81;21307;-82
2022/08/29 04:07:16;;;;;;;22.62;13.30;;;;;;;22.20;81.05;99918.19;1766998;81;21940;-82
2022/08/29 04:10:32;;;;;;;33.55;13.25;;;;;;;22.30;80.84;99923.02;1767302;81;21181;-82
2022/08/29 04:13:39;;;;;;;27.20;11.20;;;;;;;22.53;80.78;99928.27;1768767;81;21331;-82
2022/08/29 04:16:45;;;;;;;40.17;13.18;;;;;;;22.68;80.87;99930.38;1765357;79;22135;-82
2022/08/29 04:19:50;;;;;;;26.40;12.07;;;;;;;22.89;80.97;99939.22;1758034;81;21182;-82
2022/08/29 04:22:56;;;;;;;34.03;12.90;;;;;;;23.15;80.83;99938.03;1756310;81;21198;-82
2022/08/29 04:26:01;;;;;;;34.85;13.53;;;;;;;23.39;80.09;99935.67;1756270;81;21779;-82
2022/08/29 04:29:09;;;;;;;27.95;12.28;;;;;;;23.51;79.41;99937.69;1756090;81;21287;-82
2022/08/29 04:32:14;;;;;;;31.97;13.83;;;;;;;23.62;78.94;99945.02;1776151;79;21244;-82
2022/08/29 04:35:20;;;;;;;30.90;12.73;;;;;;;23.98;77.54;99946.59;1800328;79;21149;-82
2022/08/29 04:38:26;;;;;;;32.65;12.85;;;;;;;24.01;77.67;99950.80;1802981;79;21221;-82
2022/08/29 04:41:30;;;;;;;35.55;14.00;;;;;;;24.26;77.33;99954.23;1805961;79;21567;-82
2022/08/29 04:44:36;;;;;;;41.23;13.45;;;;;;;24.44;76.89;99953.19;1805876;79;21291;-82
2022/08/29 04:47:44;;;;;;;27.75;11.90;;;;;;;24.53;76.44;99951.25;1805919;79;21619;-82
2022/08/29 04:50:50;;;;;;;28.47;12.82;;;;;;;24.76;75.19;99954.08;1805240;79;21243;-82
2022/08/29 04:53:56;;;;;;;35.70;14.63;;;;;;;24.95;74.35;99958.00;1805762;79;21216;-82
2022/08/29 04:57:02;;;;;;;42.73;13.38;;;;;;;25.08;73.71;99958.88;1805902;79;21224;-82
2022/08/29 05:00:13;;;;;;;31.93;12.37;;;;;;;25.43;72.32;99954.33;1804570;79;21220;-82
2022/08/29 05:03:19;;;;;;;23.52;11.57;;;;;;;25.71;71.43;99958.46;1804089;79;21176;-83
2022/08/29 05:06:26;;;;;;;28.57;12.70;;;;;;;26.02;70.44;99963.43;1805819;79;21201;-83
2022/08/29 05:09:33;;;;;;;24.25;10.80;;;;;;;26.24;69.18;99966.66;1805156;79;21838;-83
2022/08/29 05:12:40;;;;;;;26.40;11.45;;;;;;;26.57;67.91;99964.25;1805614;79;21204;-83
2022/08/29 05:15:46;;;;;;;29.12;10.68;;;;;;;26.51;67.89;99962.63;1805912;79;21226;-83
2022/08/29 05:18:51;;;;;;;31.27;10.23;;;;;;;26.63;66.75;99964.52;1743307;82;21254;-83
2022/08/29 05:21:56;;;;;;;29.42;10.63;;;;;;;26.77;65.65;99966.07;1743410;82;21180;-83
2022/08/29 05:25:00;;;;;;;;;;;;;;;26.83;65.58;99962.12;1745201;82;21235;-83
2022/08/29 05:28:05;;;;;;;25.90;9.93;;;;;;;27.14;64.27;99955.69;1742052;82;20220;-83
2022/08/29 05:31:13;;;;;;;26.52;9.60;;;;;;;27.34;63.17;99957.50;1750972;79;21408;-84
2022/08/29 05:34:18;;;;;;;26.65;9.68;;;;;;;27.69;61.67;99959.06;1770161;81;21185;-82
2022/08/29 05:37:27;;;;;;;21.85;8.65;;;;;;;27.98;60.65;99963.81;1755124;79;21489;-83
2022/08/29 05:40:33;;;;;;;25.02;8.70;;;;;;;27.88;60.30;99966.75;1787093;78;21258;-82
2022/08/29 05:43:39;;;;;;;27.52;8.30;;;;;;;28.18;58.59;99961.30;1789337;79;21327;-83
2022/08/29 05:46:44;;;;;;;28.17;9.23;;;;;;;28.52;56.98;99973.24;1766374;80;21153;-83
2022/08/29 05:49:52;;;;;;;26.57;7.97;;;;;;;28.63;55.96;99966.88;1800909;79;21212;-82
2022/08/29 05:52:58;;;;;;;28.30;7.45;;;;;;;28.85;54.87;99968.25;1803275;78;21192;-83
2022/08/29 05:56:03;;;;;;;26.75;8.78;;;;;;;28.85;54.26;99977.53;1791549;78;21220;-83
2022/08/29 05:59:10;;;;;;;28.65;6.83;;;;;;;28.94;54.44;99974.86;1804948;78;21831;-83
2022/08/29 06:02:15;;;;;;;20.80;7.25;;;;;;;28.93;53.83;99977.38;1798439;78;21248;-83
2022/08/29 06:05:22;;;;;;;31.12;7.05;;;;;;;29.16;52.02;99980.69;1802228;78;21235;-83
2022/08/29 06:08:29;;;;;;;19.15;6.90;;;;;;;29.52;50.63;99989.92;1769217;80;21202;-82
2022/08/29 06:11:37;;;;;;;21.62;7.78;;;;;;;28.93;52.57;99990.05;1796162;79;21235;-83
2022/08/29 06:14:43;;;;;;;35.45;7.10;;;;;;;29.83;50.55;99985.98;1796639;78;21263;-83
2022/08/29 06:17:49;;;;;;;23.60;6.03;;;;;;;30.36;48.89;99989.69;1764006;80;21180;-83
2022/08/29 06:20:56;;;;;;;26.55;6.78;;;;;;;30.28;47.15;99988.43;1804794;78;21200;-81
2022/08/29 06:24:02;;;;;;;24.75;7.17;;;;;;;30.35;47.00;99994.21;1799492;78;21225;-83
2022/08/29 06:27:07;;;;;;;27.58;6.92;;;;;;;30.56;46.43;99994.03;1800916;78;21272;-83
2022/08/29 06:30:14;;;;;;;17.15;5.95;;;;;;;30.46;46.43;99997.09;1797415;78;21189;-84
2022/08/29 06:33:20;;;;;;;23.83;6.42;;;;;;;30.72;45.72;99992.53;1797498;78;21172;-84
2022/08/29 06:36:26;;;;;;;22.52;6.50;;;;;;;30.85;44.73;99996.48;1808016;79;21739;-84
2022/08/29 06:39:33;;;;;;;27.32;6.17;;;;;;;30.77;44.97;99996.68;1794864;78;21246;-84
2022/08/29 06:42:41;;;;;;;23.42;5.85;;;;;;;30.84;44.68;99993.41;1788662;78;21224;-84
2022/08/29 06:45:48;;;;;;;30.97;6.20;;;;;;;31.04;42.49;99999.13;1789132;79;21134;-84
2022/08/29 06:48:55;;;;;;;19.30;6.03;;;;;;;31.19;42.60;100001.55;1781041;78;21145;-84
2022/08/29 06:52:01;;;;;;;22.67;6.30;;;;;;;31.37;42.06;99994.65;1776892;78;21216;-84
2022/08/29 06:55:10;;;;;;;18.67;5.78;;;;;;;31.61;42.77;99999.94;1783313;78;21190;-84
2022/08/29 06:58:09;;;;;;;30.90;6.83;;;;;;;31.53;41.68;99998.76;1774439;78;21732;-84
2022/08/29 07:01:20;;;;;;;19.12;5.33;;;;;;;31.67;41.34;99998.09;1750095;80;22261;-84
2022/08/29 07:04:25;;;;;;;26.45;7.08;;;;;;;31.99;41.24;100001.14;1784445;79;21177;-85
2022/08/29 07:07:31;;;;;;;26.65;6.25;;;;;;;32.07;40.75;100002.34;1788730;79;21117;-84
2022/08/29 07:10:37;;;;;;;18.45;5.20;;;;;;;32.16;40.67;100000.39;1787080;79;21289;-84
2022/08/29 07:13:43;;;;;;;29.82;6.08;;;;;;;32.24;40.16;100002.41;1776258;79;21181;-84
2022/08/29 07:16:48;;;;;;;18.60;5.20;;;;;;;32.24;37.69;100005.83;1778165;79;21193;-84
2022/08/29 07:19:53;;;;;;;27.30;5.97;;;;;;;32.42;37.05;100010.95;1788461;78;21185;-84
2022/08/29 07:22:58;;;;;;;21.65;4.85;;;;;;;32.37;36.99;100014.81;1784313;78;21193;-83
2022/08/29 07:26:20;;;;;;;23.22;4.87;;;;;;;32.34;36.71;100017.42;1787481;79;21145;-83
2022/08/29 07:29:25;;;;;;;;;;;;;;;32.54;36.77;100011.16;1787873;79;21146;-84
2022/08/29 07:32:31;;;;;;;23.20;5.72;;;;;;;32.57;36.69;100011.93;1797036;79;20232;-84
2022/08/29 07:35:37;;;;;;;22.15;5.83;;;;;;;32.60;36.47;100015.49;1752129;81;21209;-84
2022/08/29 07:38:42;;;;;;;25.95;4.80;;;;;;;32.80;35.81;100005.55;1795437;79;21173;-84
2022/08/29 07:41:48;;;;;;;12.82;3.65;;;;;;;32.93;35.54;100013.64;1776085;79;21220;-84
2022/08/29 07:44:53;;;;;;;18.77;4.50;;;;;;;33.10;35.78;100014.23;1783911;78;21144;-85
2022/08/29 07:47:59;;;;;;;18.02;4.17;;;;;;;33.01;33.33;100021.31;1789018;79;21193;-83
2022/08/29 07:51:07;;;;;;;25.35;5.00;;;;;;;33.28;32.52;100025.22;1786588;79;21177;-82
2022/08/29 07:54:15;;;;;;;16.93;4.62;;;;;;;33.28;32.52;100025.22;1778533;79;21164;-83
2022/08/29 07:57:19;;;;;;;14.38;4.25;;;;;;;32.85;32.59;100022.95;1784272;78;21173;-83
2022/08/29 08:00:27;;;;;;;20.35;4.40;;;;;;;32.74;32.41;100024.67;1782487;78;21227;-83
2022/08/29 08:03:32;;;;;;;20.00;4.78;;;;;;;32.69;32.91;100027.66;1780688;78;21156;-83
2022/08/29 08:06:39;;;;;;;16.10;3.98;;;;;;;32.64;35.13;100029.24;1784732;79;21149;-83
2022/08/29 08:09:47;;;;;;;26.25;4.35;;;;;;;32.70;35.12;100034.16;1781412;78;21169;-83
2022/08/29 08:12:55;;;;;;;14.95;4.05;;;;;;;32.78;34.07;100034.17;1775718;79;21232;-83
2022/08/29 08:16:02;;;;;;;20.05;3.65;;;;;;;32.93;33.47;100037.72;1788150;78;21181;-83
2022/08/29 08:19:08;;;;;;;19.62;4.58;;;;;;;33.08;32.60;100040.08;1784350;79;21209;-83
2022/08/29 08:22:15;;;;;;;24.40;4.53;;;;;;;33.13;32.46;100041.32;1752838;81;21209;-83
2022/08/29 08:25:21;;;;;;;22.42;4.42;;;;;;;33.21;32.10;100040.46;1786450;79;22239;-84
2022/08/29 08:28:27;;;;;;;20.32;4.47;;;;;;;33.22;31.57;100042.15;1786201;79;21192;-83
2022/08/29 08:31:33;;;;;;;16.65;4.45;;;;;;;33.35;31.27;100046.54;1792622;79;21233;-83
2022/08/29 08:34:38;;;;;;;16.82;4.35;;;;;;;33.39;31.84;100044.12;1789557;79;21161;-83
2022/08/29 08:37:43;;;;;;;19.27;4.20;;;;;;;33.37;32.23;100047.88;1791050;79;21263;-83
2022/08/29 08:41:35;;;;;;;12.15;3.58;;;;;;;33.39;32.48;100046.12;1720849;81;21190;-83
2022/08/29 08:45:00;;;;;;;16.67;4.70;;;;;;;33.37;32.33;100046.47;1802201;79;21212;-83
2022/08/29 08:48:22;;;;;;;18.12;3.67;;;;;;;33.44;31.14;100043.97;1763652;81;21213;-83
2022/08/29 08:51:32;;;;;;;19.62;4.37;;;;;;;33.64;30.56;100045.26;1716809;82;21847;-82
2022/08/29 08:54:40;;;;;;;23.83;4.80;;;;;;;33.60;29.90;100045.72;1734426;82;21237;-83
2022/08/29 08:57:59;;;;;;;23.40;4.37;;;;;;;33.65;31.05;100045.53;1737915;81;21221;-83
2022/08/29 09:01:29;;;;;;;18.42;4.40;;;;;;;34.05;32.60;100044.66;1733449;82;21209;-83
2022/08/29 09:05:04;;;;;;;17.60;4.72;;;;;;;33.68;32.98;100041.17;1721638;82;21828;-83
2022/08/29 09:08:41;;;;;;;17.30;4.42;;;;;;;33.52;31.65;100047.39;1729069;81;21182;-83
2022/08/29 09:11:53;;;;;;;16.67;4.35;;;;;;;33.24;31.16;100041.22;1723662;81;21156;-83
2022/08/29 09:15:13;;;;;;;24.52;4.70;;;;;;;33.07;31.96;100041.22;1722661;81;21255;-83
2022/08/29 09:18:32;;;;;;;19.98;4.60;;;;;;;32.83;31.80;100041.09;1721294;82;21368;-83
2022/08/29 09:21:40;;;;;;;25.10;3.92;;;;;;;33.03;30.87;100032.58;1714680;82;21173;-84
2022/08/29 09:25:07;;;;;;;23.67;4.37;;;;;;;33.17;29.94;100026.73;1731022;81;21216;-83
2022/08/29 09:28:15;;;;;;;28.10;4.95;;;;;;;33.00;29.59;100028.98;1731844;81;21851;-83
2022/08/29 09:31:34;;;;;;;38.83;4.25;;;;;;;32.93;28.94;100027.80;1732075;81;21188;-83
2022/08/29 09:34:45;;;;;;;22.37;5.00;;;;;;;32.88;29.50;100024.52;1736562;81;21146;-84
2022/08/29 09:37:56;;;;;;;19.55;4.20;;;;;;;33.02;32.01;100028.64;1730283;81;21683;-83
2022/08/29 09:41:14;;;;;;;22.62;4.50;;;;;;;33.02;31.65;100034.30;1715894;81;21160;-83
2022/08/29 09:44:29;;;;;;;20.52;4.40;;;;;;;32.97;30.41;100026.80;1734658;81;21201;-83
2022/08/29 09:47:37;;;;;;;18.85;4.60;;;;;;;33.03;29.94;100030.30;1734479;82;21543;-83
2022/08/29 09:50:44;;;;;;;20.12;4.53;;;;;;;32.86;30.13;100024.62;1735624;82;21243;-82
2022/08/29 09:53:50;;;;;;;22.07;4.37;;;;;;;32.82;30.02;100022.44;1730832;82;21185;-82
2022/08/29 09:57:01;;;;;;;26.30;4.47;;;;;;;32.80;30.35;100016.28;1729097;82;21248;-83
2022/08/29 10:00:20;;;;;;;18.45;4.40;;;;;;;32.83;30.32;100024.09;1726933;82;21229;-84
2022/08/29 10:03:29;;;;;;;24.67;4.47;;;;;;;32.97;32.00;100024.55;1721978;81;21184;-83
2022/08/29 10:06:39;;;;;;;18.15;4.37;;;;;;;33.11;32.15;100011.05;1739708;82;21188;-83
2022/08/29 10:09:46;;;;;;;24.27;4.50;;;;;;;33.36;32.37;100019.86;1725754;82;21756;-82
2022/08/29 10:13:22;;;;;;;27.85;4.40;;;;;;;33.51;32.12;100020.21;1738677;81;21241;-83
2022/08/29 10:16:46;;;;;;;23.85;4.58;;;;;;;33.48;31.67;100021.46;1730087;81;21780;-83
2022/08/29 10:19:54;;;;;;;21.95;4.42;;;;;;;33.53;30.53;100013.61;1730096;82;21756;-83
2022/08/29 10:23:10;;;;;;;26.97;5.20;;;;;;;33.55;29.85;100009.86;1728694;82;21252;-83
2022/08/29 10:26:51;;;;;;;27.75;4.87;;;;;;;33.58;28.77;100012.59;1732869;82;21213;-84
2022/08/29 10:30:20;;;;;;;20.02;4.47;;;;;;;33.53;29.04;100011.36;1725277;82;21185;-83
2022/08/29 10:33:54;;;;;;;20.12;3.85;;;;;;;33.48;29.23;100010.13;1731263;81;22095;-83
2022/08/29 10:37:05;;;;;;;37.23;5.35;;;;;;;33.52;29.26;100015.38;1784253;78;22060;-84
2022/08/29 10:40:31;;;;;;;24.45;4.90;;;;;;;33.64;29.09;100014.07;1795162;78;21197;-83
2022/08/29 10:44:01;;;;;;;26.55;5.05;;;;;;;33.61;29.65;100009.09;1788269;79;22389;-83
2022/08/29 10:47:19;;;;;;;32.05;4.67;;;;;;;33.58;29.26;100014.02;1798570;79;21775;-83
2022/08/29 10:50:59;;;;;;;21.27;4.00;;;;;;;33.70;29.02;100011.32;1793590;78;21732;-83
2022/08/29 10:54:09;;;;;;;27.42;4.47;;;;;;;33.81;29.46;100008.94;1793457;78;21232;-84
2022/08/29 10:57:15;;;;;;;28.05;4.85;;;;;;;33.78;30.84;100007.63;1755536;81;21888;-83
2022/08/29 11:00:25;;;;;;;18.75;4.20;;;;;;;33.88;30.77;100009.82;1761005;81;21702;-83
2022/08/29 11:03:59;;;;;;;22.62;4.30;;;;;;;33.83;31.14;100013.12;1762448;81;22653;-83
2022/08/29 11:07:22;;;;;;;22.62;4.15;;;;;;;33.88;30.00;100009.82;1735102;82;21606;-83
2022/08/29 11:10:39;;;;;;;31.15;5.00;;;;;;;33.09;31.24;99998.41;1728996;82;21243;-83
2022/08/29 11:13:48;;;;;;;16.62;4.37;;;;;;;33.88;30.52;99996.50;1768441;81;21187;-82
2022/08/29 11:16:55;;;;;;;26.50;5.22;;;;;;;34.17;29.95;99994.89;1767447;81;21232;-83
2022/08/29 11:20:29;;;;;;;31.12;5.17;;;;;;;33.71;29.38;99993.13;1768895;81;21189;-83
2022/08/29 11:23:50;;;;;;;15.70;4.25;;;;;;;32.97;28.99;99990.56;1768902;81;21417;-83
2022/08/29 11:27:12;;;;;;;24.70;3.95;;;;;;;32.90;29.06;99981.72;1768864;81;22186;-83
2022/08/29 11:30:27;;;;;;;17.77;4.70;;;;;;;32.95;30.21;99977.33;1750853;81;21883;-82
2022/08/29 11:33:56;;;;;;;24.37;4.53;;;;;;;33.54;30.18;99976.98;1736709;82;21209;-83
2022/08/29 11:37:28;;;;;;;20.77;4.10;;;;;;;33.27;30.75;99975.38;1736220;82;21212;-83
2022/08/29 11:40:55;;;;;;;24.25;4.10;;;;;;;33.12;30.57;99970.80;1707871;84;21277;-82
2022/08/29 11:44:13;;;;;;;21.00;3.67;;;;;;;32.74;31.72;99967.20;1738775;82;21232;-83
2022/08/29 11:47:44;;;;;;;21.57;4.50;;;;;;;32.72;31.57;99970.97;1713751;82;21272;-83
2022/08/29 11:50:51;;;;;;;28.92;5.08;;;;;;;32.85;31.26;99967.73;1744119;82;21251;-83
2022/08/29 11:53:58;;;;;;;33.48;4.78;;;;;;;32.83;30.94;99970.29;1744135;82;21193;-83
2022/08/29 11:57:12;;;;;;;29.20;4.90;;;;;;;32.80;30.90;99965.31;1744318;81;21778;-83
2022/08/29 12:00:41;;;;;;;28.55;3.87;;;;;;;32.80;30.17;99965.90;1745199;82;21193;-83
2022/08/29 12:03:50;;;;;;;17.35;4.03;;;;;;;32.81;30.15;99962.72;1745168;82;22461;-83
2022/08/29 12:07:05;;;;;;;32.67;4.40;;;;;;;32.72;30.88;99961.89;1727083;83;21182;-83
2022/08/29 12:10:15;;;;;;;24.02;5.08;;;;;;;32.76;31.33;99959.23;1724661;83;21206;-83
2022/08/29 12:13:23;;;;;;;19.55;4.05;;;;;;;32.79;29.96;99964.20;1725486;83;21249;-83
2022/08/29 12:16:36;;;;;;;24.23;4.72;;;;;;;32.95;29.11;99957.51;1730845;82;21791;-83
2022/08/29 12:20:01;;;;;;;24.15;4.53;;;;;;;32.94;29.51;99958.09;1723191;82;21177;-83
2022/08/29 12:23:12;;;;;;;21.90;3.92;;;;;;;33.05;29.14;99955.74;1758366;81;21170;-83
2022/08/29 12:26:47;;;;;;;35.38;5.10;;;;;;;32.92;29.17;99950.50;1743782;82;21220;-83
2022/08/29 12:29:55;;;;;;;20.92;4.08;;;;;;;32.94;28.72;99951.02;1743759;82;21760;-84
2022/08/29 12:33:08;;;;;;;28.70;4.87;;;;;;;32.94;28.84;99945.34;1746863;81;21219;-84
2022/08/29 12:36:43;;;;;;;21.00;4.47;;;;;;;32.93;28.10;99941.41;1730292;83;21209;-84
2022/08/29 12:39:54;;;;;;;18.45;4.50;;;;;;;33.03;28.10;99941.92;1737138;82;21201;-84
2022/08/29 12:43:17;;;;;;;28.98;4.58;;;;;;;33.24;28.65;99949.13;1735593;82;21432;-84
2022/08/29 12:46:39;;;;;;;22.30;4.67;;;;;;;33.22;28.77;99935.89;1726707;81;21201;-83
2022/08/29 12:49:55;;;;;;;32.25;5.58;;;;;;;33.11;28.77;99933.14;1725145;82;21752;-83
2022/08/29 12:53:13;;;;;;;23.47;4.33;;;;;;;33.32;28.58;99927.61;1733807;82;21194;-83
2022/08/29 12:56:27;;;;;;;34.58;5.10;;;;;;;33.53;29.33;99938.48;1731574;82;21188;-83
2022/08/29 12:59:35;;;;;;;17.17;4.20;;;;;;;33.57;29.15;99933.80;1748026;82;21173;-83
2022/08/29 13:02:43;;;;;;;27.62;4.17;;;;;;;33.54;29.04;99930.80;1717805;82;21595;-83
2022/08/29 13:05:50;;;;;;;29.07;4.78;;;;;;;33.54;28.91;99931.63;1709056;84;21225;-83
2022/08/29 13:08:57;;;;;;;30.02;4.50;;;;;;;33.59;28.73;99929.19;1709581;84;21209;-83
2022/08/29 13:12:25;;;;;;;26.33;4.95;;;;;;;33.50;29.65;99927.84;1709828;84;21205;-83
2022/08/29 13:15:32;;;;;;;26.55;4.00;;;;;;;33.57;29.74;99932.97;1750060;81;21835;-83
2022/08/29 13:18:37;;;;;;;27.02;4.92;;;;;;;33.56;29.06;99929.30;1766973;81;21295;-83
2022/08/29 13:21:45;;;;;;;29.72;5.37;;;;;;;33.51;29.14;99930.91;1768475;81;21193;-83
2022/08/29 13:24:51;;;;;;;25.02;4.85;;;;;;;33.48;29.78;99929.33;1730431;82;21515;-83
2022/08/29 13:27:56;;;;;;;31.42;5.37;;;;;;;33.25;29.99;99933.78;1768185;81;21811;-83
2022/08/29 13:31:21;;;;;;;22.75;4.72;;;;;;;33.03;30.06;99932.56;1737125;79;21189;-83
2022/08/29 13:34:27;;;;;;;25.65;4.37;;;;;;;32.96;29.71;99937.92;1768584;81;21208;-83
2022/08/29 13:37:42;;;;;;;25.23;4.97;;;;;;;32.89;29.71;99933.30;1732048;82;21770;-83
2022/08/29 13:40:59;;;;;;;21.85;4.30;;;;;;;32.90;29.52;99932.16;1768717;81;21220;-84
2022/08/29 13:44:06;;;;;;;30.45;4.85;;;;;;;32.93;30.21;99923.00;1731847;82;21197;-84
2022/08/29 13:47:23;;;;;;;25.10;5.15;;;;;;;32.99;30.10;99924.52;1770835;79;21782;-83
2022/08/29 13:50:30;;;;;;;33.90;5.25;;;;;;;33.01;30.71;99925.00;1768164;81;21172;-83
2022/08/29 13:53:39;;;;;;;24.47;5.35;;;;;;;33.05;30.85;99929.66;1770397;81;21196;-83
2022/08/29 13:56:46;;;;;;;32.20;4.67;;;;;;;33.13;31.26;99923.73;1768735;81;21196;-83
2022/08/29 13:59:54;;;;;;;20.70;4.30;;;;;;;32.99;31.18;99927.34;1770241;81;21195;-83
2022/08/29 14:03:00;;;;;;;28.92;4.50;;;;;;;32.97;31.36;99929.08;1769521;80;21278;-83
2022/08/29 14:06:06;;;;;;;18.82;4.37;;;;;;;32.91;31.47;99920.52;1769917;81;21818;-83
2022/08/29 14:09:12;;;;;;;34.15;5.08;;;;;;;32.92;31.56;99925.59;1769140;81;21188;-83
2022/08/29 14:12:18;;;;;;;28.45;4.75;;;;;;;32.89;31.46;99924.80;1769531;81;21192;-83
2022/08/29 14:15:25;;;;;;;25.75;4.62;;;;;;;32.82;31.30;99926.73;1770838;81;21215;-83
2022/08/29 14:18:32;;;;;;;22.42;4.80;;;;;;;32.80;30.90;99918.59;1770451;80;21190;-83
2022/08/29 14:21:38;;;;;;;31.70;5.40;;;;;;;32.74;31.43;99917.07;1769713;81;21184;-83
2022/08/29 14:24:50;;;;;;;30.12;5.30;;;;;;;32.72;31.60;99912.34;1771073;81;21219;-83
2022/08/29 14:27:52;;;;;;;22.25;5.12;;;;;;;32.66;31.52;99913.69;1769661;81;21215;-83
2022/08/29 14:30:58;;;;;;;26.40;4.90;;;;;;;32.66;31.11;99906.61;1770990;81;21529;-83
2022/08/29 14:34:04;;;;;;;26.62;5.45;;;;;;;32.62;31.26;99905.60;1770317;80;21152;-83
2022/08/29 14:37:11;;;;;;;17.70;5.37;;;;;;;32.64;31.21;99907.50;1770355;81;21168;-83
2022/08/29 14:40:16;;;;;;;33.08;5.58;;;;;;;32.63;31.27;99903.02;1770926;81;21180;-83